Hite, UT

4:49 PM MDT on July 03, 2015 (GMT -0600)
Page Municipal | | Change Station
CLOSE
Current Station
Airport
Location: Page,
Elevation: 4308 ft
Nearby Weather Stations
Active Advisory: Areal Flood Advisory Active Notice: Record Report

Elev 4308 ft 36.92 °N, 111.45 °W | Updated 56 minutes ago

Partly Cloudy
Partly Cloudy
93 °F
Feels Like 93 °F
N
0
Wind Variable Wind from North

Today
High -- | Low -- °F
--% Chance of Precip.
Yesterday
High -- | Low -- °F
Precip. -- in
6:05 AM 8:48 PM
Waning Gibbous, 95% visible
Pressure 29.73 in
Visibility 10.0 miles
Clouds Clear
Dew Point 47 °F
Humidity 20%
Rainfall 0.00 in
Snow Depth Not available.
UV 10 out of 12
Pollen 3.80 out of 12
Air Quality Not available.
Flu Activity Not available.
METAR KPGA 032153Z AUTO 00000KT 10SM CLR 34/08 A2996 RMK AO2 SLP068 T03390083 TSNO

More Conditions Fewer Conditions

Pressure 29.73 in
Visibility 10.0 miles
Clouds Clear
Dew Point 47 °F
Humidity 20%
Rainfall 0.00 in
Snow Depth Not available.
UV 10 out of 12
Pollen 3.80 out of 12
Air Quality Not available.
Flu Activity Not available.
METAR KPGA 032153Z AUTO 00000KT 10SM CLR 34/08 A2996 RMK AO2 SLP068 T03390083 TSNO

More Conditions Fewer Conditions

10-Day Weather Forecast

×

Almanac

Astronomy

Jul. 03, 2015 Rise Set
Actual Time
Civil Twilight
Nautical Twilight
Astronomical Twilight
Moon
Length of Visible Light
Length of Day
Tomorrow will be .
, % of the Moon is Illuminated

Today's Extremes

State Highs State Lows

Community

WunderPhotos

Upload Photos

1,834,807 photos uploaded!

WunderBlogs® & News

Nearby

Air Quality

  Air Quality AQ Index Pollutant
Not available.

Snow Depth

Station Depth Elevation

Earthquake Activity

City Distance Mag. Time & Date
Minimum magnitude displayed is 2.5.

Coastal Water Temperatures

Place Temperature

Stations

Nearby Weather Stations

Station Location Temp. Windchill Dew Point Humidity Wind Precip. Elev Updated Type
                   
Areal Flood Advisory
Statement as of 4:21 PM MDT on July 03, 2015

... The Arroyo and Small Stream Flood Advisory remains in effect until
530 PM MDT for central San Juan County...

At 420 PM MDT... Doppler radar indicated heavy rain due to
thunderstorms. This will cause Arroyo and Small Stream flooding in
the advisory area.

This flooding will remain over mainly rural areas of central San Juan
County in the Dark Canyon area.

Lat... Lon 3786 11013 3789 10981 3781 10985 3783 11016
      3786 11019 3786 11018 3788 11018 3790 11019


Joe


420 PM MDT Fri Jul 3 2015

... The Arroyo and Small Stream Flood Advisory remains in effect until
530 PM MDT for northern San Juan County...

At 419 PM MDT... Doppler radar indicated heavy rain due to
thunderstorms. This will cause Arroyo and Small Stream flooding in
the advisory area.

Precautionary/preparedness actions...

To report flooding... have the nearest law enforcement agency relay
your report to the National Weather Service forecast office.


Lat... Lon 3788 10979 3784 10986 3797 11002 3799 10994


Joe